Terminal Aerodrome Forecast
Issued by NWS

Home | Current Version | Previous Version | Text Only | Print | Product List | Glossary On
Versions: 1 2 3 4 5 6 7 8 9 10 11 12 13 14 15 16 17 18 19 20 21
000
FTUS41 KBOX 171723
TAFHYA
TAF
KHYA 171723Z 1718/1818 02007KT 5SM BR VCSH OVC005
     FM172300 30006KT P6SM OVC005
     FM180600 31010KT P6SM BKN008
     FM180800 31009KT P6SM BKN010
     FM181000 31008KT P6SM SCT150=

USA.gov is the U.S. government's official web portal to all federal, state and local government web resources and services.